Time;durP1;ratioP1;P1;durP2;ratioP2;P2;SDS_P1;SDS_P2;PMS_P1;PMS_P2;Temp;Humidity;BMP_temperature;BMP_pressure;BME280_temperature;BME280_humidity;BME280_pressure;Samples;Min_cycle;Max_cycle;Signal;HPM_P1;HPM_P2
2023/09/04 00:01:39;;;;;;;2.40;1.23;;;;;;;18.59;100.00;97252.69;5035624;28;20208;-68
2023/09/04 00:04:07;;;;;;;2.75;1.67;;;;;;;18.84;100.00;97250.28;5036660;28;20208;-68
2023/09/04 00:06:33;;;;;;;1.92;1.30;;;;;;;18.66;100.00;97256.22;5034919;28;20205;-68
2023/09/04 00:09:00;;;;;;;1.92;1.40;;;;;;;18.96;100.00;97254.81;5035190;28;20201;-68
2023/09/04 00:11:27;;;;;;;1.83;0.90;;;;;;;18.85;100.00;97243.91;5035767;28;20229;-68
2023/09/04 00:13:54;;;;;;;2.88;1.67;;;;;;;18.87;100.00;97253.38;5035885;28;20208;-68
2023/09/04 00:16:21;;;;;;;5.22;1.60;;;;;;;19.17;100.00;97247.47;5035229;28;20205;-68
2023/09/04 00:18:48;;;;;;;1.75;1.23;;;;;;;18.94;100.00;97254.22;5035445;28;20201;-68
2023/09/04 00:21:15;;;;;;;2.22;1.30;;;;;;;19.06;100.00;97255.28;5035068;28;20216;-68
2023/09/04 00:23:42;;;;;;;1.60;1.02;;;;;;;18.94;100.00;97259.56;5035324;28;20299;-68
2023/09/04 00:26:08;;;;;;;1.23;1.02;;;;;;;19.00;100.00;97248.88;5035558;28;20201;-68
2023/09/04 00:28:35;;;;;;;1.92;1.20;;;;;;;18.90;100.00;97244.94;5034972;28;21191;-68
2023/09/04 00:31:02;;;;;;;1.55;1.10;;;;;;;19.03;100.00;97247.63;5035584;28;20302;-68
2023/09/04 00:33:30;;;;;;;1.52;1.20;;;;;;;19.30;100.00;97242.09;5036254;28;20243;-68
2023/09/04 00:35:56;;;;;;;1.02;0.93;;;;;;;18.80;100.00;97243.69;5035266;28;20197;-68
2023/09/04 00:38:23;;;;;;;1.70;1.10;;;;;;;18.90;100.00;97247.59;5034700;28;20231;-68
2023/09/04 00:40:49;;;;;;;1.25;1.08;;;;;;;18.85;100.00;97241.22;5035567;28;20206;-68
2023/09/04 00:43:16;;;;;;;2.47;1.23;;;;;;;19.06;100.00;97241.91;5037989;28;20501;-67
2023/09/04 00:45:43;;;;;;;1.92;1.17;;;;;;;19.01;100.00;97233.66;5038650;28;20216;-68
2023/09/04 00:48:10;;;;;;;2.22;1.17;;;;;;;18.80;100.00;97228.50;5038420;28;20232;-68
2023/09/04 00:50:40;;;;;;;2.25;1.40;;;;;;;19.28;100.00;97221.97;5039186;28;20209;-68
2023/09/04 00:53:09;;;;;;;2.08;1.40;;;;;;;18.78;100.00;97227.88;5038395;28;20229;-68
2023/09/04 00:55:37;;;;;;;3.15;1.30;;;;;;;18.49;100.00;97220.22;5038716;28;20201;-68
2023/09/04 00:58:04;;;;;;;2.13;1.17;;;;;;;18.32;100.00;97218.13;5038587;28;20233;-68
2023/09/04 01:00:31;;;;;;;2.20;1.30;;;;;;;18.18;100.00;97218.31;5039487;28;20211;-68
2023/09/04 01:03:02;;;;;;;2.25;1.50;;;;;;;18.44;100.00;97216.50;5038132;28;20208;-68
2023/09/04 01:05:31;;;;;;;2.22;1.30;;;;;;;18.68;100.00;97221.28;5038901;28;20205;-68
2023/09/04 01:07:59;;;;;;;2.55;1.67;;;;;;;18.95;100.00;97216.59;5037586;28;20689;-68
2023/09/04 01:10:34;;;;;;;3.00;1.60;;;;;;;18.95;100.00;97215.75;5039054;28;20291;-68
2023/09/04 01:13:04;;;;;;;2.67;1.77;;;;;;;18.88;100.00;97216.81;5039267;28;21047;-67
2023/09/04 01:15:32;;;;;;;4.32;2.13;;;;;;;18.68;100.00;97213.28;5039555;28;20213;-68
2023/09/04 01:18:00;;;;;;;4.40;2.00;;;;;;;18.65;100.00;97214.50;5037550;28;20694;-68
2023/09/04 01:20:30;;;;;;;3.38;1.52;;;;;;;18.81;100.00;97203.41;5038390;28;20201;-67
2023/09/04 01:22:58;;;;;;;3.42;1.95;;;;;;;18.12;100.00;97206.53;5039135;28;20204;-68
2023/09/04 01:25:32;;;;;;;4.53;1.92;;;;;;;18.28;100.00;97208.03;5038557;28;20476;-68
2023/09/04 01:28:05;;;;;;;4.75;1.90;;;;;;;18.48;100.00;97210.59;5038147;28;20225;-67
2023/09/04 01:30:39;;;;;;;2.28;1.45;;;;;;;18.21;100.00;97210.69;5038823;28;20213;-68
2023/09/04 01:33:10;;;;;;;3.45;2.10;;;;;;;17.99;100.00;97208.34;5038101;28;20278;-68
2023/09/04 01:35:39;;;;;;;2.65;1.70;;;;;;;18.15;100.00;97197.31;5038436;28;20205;-67
2023/09/04 01:38:05;;;;;;;3.70;2.00;;;;;;;17.97;100.00;97213.88;5037199;28;20734;-68
2023/09/04 01:40:32;;;;;;;3.28;1.88;;;;;;;17.93;100.00;97206.47;5038469;28;20205;-68
2023/09/04 01:42:59;;;;;;;3.03;1.98;;;;;;;17.93;100.00;97207.28;5038099;28;20251;-68
2023/09/04 01:45:25;;;;;;;4.07;2.10;;;;;;;18.00;100.00;97208.13;5038478;28;20207;-68
2023/09/04 01:47:52;;;;;;;4.47;2.13;;;;;;;17.98;100.00;97198.69;5037097;28;20605;-68
2023/09/04 01:50:18;;;;;;;3.22;1.90;;;;;;;18.02;100.00;97192.75;5037600;28;20201;-68
2023/09/04 01:52:46;;;;;;;3.78;2.00;;;;;;;18.33;100.00;97205.59;5038061;28;20290;-68
2023/09/04 01:55:12;;;;;;;6.10;1.90;;;;;;;18.20;100.00;97201.06;5036706;28;20201;-67
2023/09/04 01:57:39;;;;;;;5.45;2.13;;;;;;;18.23;100.00;97206.00;5036909;28;20604;-68
2023/09/04 02:00:08;;;;;;;3.65;2.17;;;;;;;18.46;100.00;97204.63;5037162;28;20206;-68
2023/09/04 02:02:35;;;;;;;4.25;1.67;;;;;;;18.02;100.00;97199.94;5037807;28;20268;-67
2023/09/04 02:05:02;;;;;;;2.47;1.60;;;;;;;17.93;100.00;97201.13;5037396;28;20204;-68
2023/09/04 02:07:28;;;;;;;3.53;1.98;;;;;;;18.00;100.00;97196.66;5037382;28;20228;-68
2023/09/04 02:09:56;;;;;;;3.67;2.13;;;;;;;17.92;100.00;97192.31;5037351;28;20683;-68
2023/09/04 02:12:23;;;;;;;4.18;2.05;;;;;;;17.85;100.00;97193.31;5036959;28;20221;-68
2023/09/04 02:14:51;;;;;;;3.22;2.10;;;;;;;18.09;100.00;97195.47;5036706;28;20205;-68
2023/09/04 02:17:18;;;;;;;4.65;2.25;;;;;;;17.61;100.00;97188.47;5033936;28;20230;-68
2023/09/04 02:19:45;;;;;;;5.07;2.13;;;;;;;17.87;100.00;97186.75;5036890;28;20753;-68
2023/09/04 02:22:11;;;;;;;5.35;2.38;;;;;;;17.69;100.00;97187.47;5036941;28;20204;-68
2023/09/04 02:24:38;;;;;;;3.78;2.08;;;;;;;17.49;100.00;97184.72;5037396;28;20205;-67
2023/09/04 02:27:06;;;;;;;4.45;2.00;;;;;;;17.79;100.00;97186.09;5037620;28;20225;-68
2023/09/04 02:29:32;;;;;;;4.13;2.22;;;;;;;17.71;100.00;97190.78;5036806;28;20216;-68
2023/09/04 02:31:59;;;;;;;4.82;2.30;;;;;;;17.47;100.00;97194.75;5036402;28;20205;-68
2023/09/04 02:34:26;;;;;;;3.20;1.92;;;;;;;17.76;100.00;97195.31;5037637;28;20201;-68
2023/09/04 02:36:52;;;;;;;4.90;2.03;;;;;;;17.73;100.00;97190.38;5036728;28;20898;-67
2023/09/04 02:39:19;;;;;;;5.25;2.20;;;;;;;17.73;100.00;97184.22;5035744;28;20279;-68
2023/09/04 02:41:45;;;;;;;2.60;1.90;;;;;;;17.67;100.00;97176.19;5037159;28;20211;-68
2023/09/04 02:44:13;;;;;;;4.47;2.15;;;;;;;17.86;100.00;97178.97;5037137;28;20260;-68
2023/09/04 02:46:40;;;;;;;4.03;1.98;;;;;;;17.72;100.00;97177.25;5036189;28;20599;-68
2023/09/04 02:49:06;;;;;;;4.35;2.20;;;;;;;17.75;100.00;97171.50;5035928;28;20201;-68
2023/09/04 02:51:33;;;;;;;5.32;2.65;;;;;;;17.84;100.00;97175.66;5037749;28;20201;-68
2023/09/04 02:53:59;;;;;;;3.88;2.40;;;;;;;17.83;100.00;97179.34;5036494;28;21040;-68
2023/09/04 02:56:26;;;;;;;4.25;1.98;;;;;;;17.89;100.00;97170.56;5035873;28;20216;-68
2023/09/04 02:58:52;;;;;;;2.92;2.00;;;;;;;17.82;100.00;97167.84;5036611;28;20208;-67
2023/09/04 03:01:20;;;;;;;3.25;2.08;;;;;;;17.89;100.00;97170.56;5036305;28;20944;-68
2023/09/04 03:03:47;;;;;;;3.22;2.13;;;;;;;17.76;100.00;97176.63;5036237;28;20659;-68
2023/09/04 03:06:13;;;;;;;4.05;2.10;;;;;;;17.55;100.00;97173.25;5036056;28;20213;-68
2023/09/04 03:08:40;;;;;;;3.45;1.77;;;;;;;17.72;100.00;97178.06;5036162;28;20264;-68
2023/09/04 03:11:10;;;;;;;3.17;1.70;;;;;;;18.09;100.00;97179.47;5036284;28;20208;-67
2023/09/04 03:13:37;;;;;;;5.22;2.58;;;;;;;17.78;100.00;97176.44;5036677;28;20221;-68
2023/09/04 03:16:05;;;;;;;5.38;2.13;;;;;;;17.63;100.00;97182.94;5036269;28;21098;-68
2023/09/04 03:18:32;;;;;;;4.10;1.98;;;;;;;17.57;100.00;97183.75;5035818;28;20225;-68
2023/09/04 03:20:59;;;;;;;5.03;1.67;;;;;;;17.41;100.00;97184.88;5036369;28;20213;-68
2023/09/04 03:23:26;;;;;;;3.90;2.10;;;;;;;17.47;100.00;97175.28;5036424;28;20205;-68
2023/09/04 03:25:52;;;;;;;3.67;2.00;;;;;;;17.41;100.00;97174.22;5035937;28;20404;-68
2023/09/04 03:28:20;;;;;;;4.60;2.53;;;;;;;17.49;100.00;97182.06;5035312;28;20225;-68
2023/09/04 03:30:46;;;;;;;4.22;2.50;;;;;;;17.55;100.00;97186.56;5036327;28;20205;-68
2023/09/04 03:33:13;;;;;;;5.13;2.70;;;;;;;17.27;100.00;97195.63;5035403;28;20240;-67
2023/09/04 03:35:41;;;;;;;5.75;2.45;;;;;;;17.38;100.00;97187.91;5036433;28;20205;-68
2023/09/04 03:38:07;;;;;;;5.10;2.58;;;;;;;17.13;100.00;97184.06;5035673;28;20229;-68
2023/09/04 03:40:34;;;;;;;5.07;2.50;;;;;;;17.21;100.00;97191.88;5036173;28;20255;-68
2023/09/04 03:43:00;;;;;;;4.45;1.88;;;;;;;17.19;100.00;97190.44;5035066;28;20201;-68
2023/09/04 03:45:32;;;;;;;4.22;2.17;;;;;;;17.54;100.00;97197.44;5036859;28;20212;-68
2023/09/04 03:47:59;;;;;;;4.43;2.45;;;;;;;17.86;100.00;97202.97;5035444;28;20278;-69
2023/09/04 03:50:26;;;;;;;3.40;2.13;;;;;;;18.00;100.00;97196.66;5035953;28;20213;-68
2023/09/04 03:52:54;;;;;;;3.47;1.80;;;;;;;18.54;100.00;97195.59;5035088;28;21198;-68
2023/09/04 03:55:21;;;;;;;4.22;2.10;;;;;;;18.33;100.00;97208.28;5036195;28;21248;-68
2023/09/04 03:57:51;;;;;;;4.85;2.28;;;;;;;18.26;100.00;97210.13;5035185;28;20256;-68
2023/09/04 04:00:18;;;;;;;4.40;1.90;;;;;;;18.33;100.00;97214.44;5036116;28;20205;-68
2023/09/04 04:02:45;;;;;;;3.28;2.10;;;;;;;18.41;100.00;97222.25;5036035;28;20212;-68
2023/09/04 04:05:13;;;;;;;4.43;2.10;;;;;;;18.49;100.00;97224.75;5035846;28;20323;-68
2023/09/04 04:07:40;;;;;;;3.65;2.00;;;;;;;18.26;100.00;97218.13;5035173;28;20233;-67
2023/09/04 04:10:08;;;;;;;3.97;2.28;;;;;;;18.31;100.00;97226.34;5035893;28;20212;-67
2023/09/04 04:12:35;;;;;;;4.60;1.98;;;;;;;18.09;100.00;97217.63;5035816;28;20221;-68
2023/09/04 04:15:05;;;;;;;2.92;1.88;;;;;;;18.39;100.00;97218.97;5035172;28;20233;-68
2023/09/04 04:17:32;;;;;;;3.30;2.00;;;;;;;18.03;100.00;97221.06;5036366;28;20224;-68
2023/09/04 04:19:58;;;;;;;3.30;1.80;;;;;;;18.09;100.00;97225.63;5039966;28;20559;-68
2023/09/04 04:22:25;;;;;;;3.65;1.88;;;;;;;18.13;100.00;97228.72;5039900;28;20201;-68
2023/09/04 04:24:51;;;;;;;3.58;2.25;;;;;;;18.15;100.00;97232.00;5039371;28;20205;-68
2023/09/04 04:27:19;;;;;;;3.92;2.50;;;;;;;18.24;100.00;97231.66;5038816;28;20232;-68
2023/09/04 04:29:49;;;;;;;5.38;2.47;;;;;;;18.00;100.00;97231.34;5039470;28;20209;-68
2023/09/04 04:32:16;;;;;;;3.78;2.20;;;;;;;18.07;100.00;97238.31;5039784;28;20220;-68
2023/09/04 04:34:43;;;;;;;4.32;2.38;;;;;;;18.25;100.00;97235.94;5039601;28;20233;-68
2023/09/04 04:37:09;;;;;;;3.42;2.33;;;;;;;18.12;100.00;97237.75;5038718;28;20222;-68
2023/09/04 04:39:36;;;;;;;4.32;2.45;;;;;;;18.04;100.00;97229.91;5038621;28;20233;-67
2023/09/04 04:42:02;;;;;;;4.15;2.40;;;;;;;17.88;100.00;97224.91;5039401;28;20197;-67
2023/09/04 04:44:30;;;;;;;3.75;2.55;;;;;;;18.04;100.00;97235.25;5038756;28;20204;-67
2023/09/04 04:46:56;;;;;;;4.78;2.60;;;;;;;17.87;100.00;97234.75;5038802;28;21296;-66
2023/09/04 04:49:24;;;;;;;5.72;2.70;;;;;;;17.89;100.00;97242.56;5038311;28;20201;-67
2023/09/04 04:51:50;;;;;;;5.13;2.20;;;;;;;17.94;100.00;97235.59;5038734;28;20212;-67
2023/09/04 04:54:19;;;;;;;4.20;2.55;;;;;;;17.89;100.00;97231.88;5035745;28;20336;-67
2023/09/04 04:56:46;;;;;;;4.57;2.55;;;;;;;17.89;100.00;97231.88;5038591;28;20236;-66
2023/09/04 04:59:12;;;;;;;3.85;2.13;;;;;;;18.05;100.00;97228.88;5038071;28;20205;-67
2023/09/04 05:01:40;;;;;;;4.50;2.30;;;;;;;18.31;100.00;97231.69;5038762;28;20274;-68
2023/09/04 05:04:07;;;;;;;5.30;2.53;;;;;;;18.10;100.00;97234.44;5038844;28;20209;-68
2023/09/04 05:06:34;;;;;;;5.07;2.33;;;;;;;18.33;100.00;97241.94;5038091;28;20201;-66
2023/09/04 05:09:00;;;;;;;4.57;2.38;;;;;;;18.24;100.00;97236.16;5038318;28;20201;-68
2023/09/04 05:11:27;;;;;;;5.03;2.47;;;;;;;18.26;100.00;97239.47;5039007;28;20212;-67
2023/09/04 05:13:53;;;;;;;3.63;2.17;;;;;;;18.24;100.00;97246.84;5038484;28;20225;-66
2023/09/04 05:16:20;;;;;;;4.47;2.60;;;;;;;18.28;100.00;97242.75;5038484;28;20205;-67
2023/09/04 05:18:48;;;;;;;5.45;2.15;;;;;;;18.28;100.00;97248.91;5038005;28;20205;-66
2023/09/04 05:21:14;;;;;;;4.88;2.20;;;;;;;18.17;100.00;97240.63;5036928;28;20207;-67
2023/09/04 05:23:41;;;;;;;5.20;2.50;;;;;;;18.25;100.00;97249.28;5037734;28;20198;-66
2023/09/04 05:26:09;;;;;;;5.47;2.60;;;;;;;18.33;100.00;97252.63;5037070;28;20209;-67
2023/09/04 05:28:36;;;;;;;5.20;2.35;;;;;;;18.62;100.00;97246.97;5036081;28;20229;-66
2023/09/04 05:31:03;;;;;;;6.18;2.72;;;;;;;18.85;100.00;97254.59;5037246;28;20714;-67
2023/09/04 05:33:30;;;;;;;3.58;2.50;;;;;;;18.93;100.00;97248.03;5037899;28;20225;-66
2023/09/04 05:35:58;;;;;;;4.43;2.25;;;;;;;19.28;100.00;97244.16;5037198;28;20209;-66
2023/09/04 05:38:25;;;;;;;5.28;2.70;;;;;;;18.87;100.00;97240.00;5037458;28;20240;-66
2023/09/04 05:40:54;;;;;;;4.80;2.60;;;;;;;18.99;100.00;97243.72;5038802;28;20607;-68
2023/09/04 05:43:20;;;;;;;5.07;2.80;;;;;;;18.67;100.00;97247.19;5035691;28;20205;-67
2023/09/04 05:45:47;;;;;;;4.57;2.08;;;;;;;18.59;100.00;97257.22;5035560;28;20635;-67
2023/09/04 05:48:13;;;;;;;4.22;2.40;;;;;;;19.01;100.00;97247.81;5036083;28;20600;-68
2023/09/04 05:50:40;;;;;;;6.18;2.42;;;;;;;19.08;100.00;97254.03;5036618;28;20263;-66
2023/09/04 05:53:08;;;;;;;5.63;2.60;;;;;;;18.98;100.00;97250.91;5035524;28;20210;-67
2023/09/04 05:55:36;;;;;;;4.65;2.72;;;;;;;18.97;100.00;97240.44;5035799;28;20370;-66
2023/09/04 05:58:03;;;;;;;4.45;2.35;;;;;;;18.78;100.00;97248.44;5035369;28;20236;-68
2023/09/04 06:00:30;;;;;;;4.22;2.58;;;;;;;18.86;100.00;97242.88;5036249;28;20201;-67
2023/09/04 06:02:56;;;;;;;5.30;2.55;;;;;;;18.91;100.00;97245.78;5035863;28;20591;-68
2023/09/04 06:05:24;;;;;;;5.05;2.58;;;;;;;18.79;100.00;97242.88;5035513;28;20201;-68
2023/09/04 06:07:50;;;;;;;4.80;2.90;;;;;;;18.94;100.00;97252.34;5035403;28;20217;-67
2023/09/04 06:10:18;;;;;;;6.80;3.15;;;;;;;19.17;100.00;97247.47;5035925;28;20243;-67
2023/09/04 06:12:45;;;;;;;3.78;2.53;;;;;;;19.05;100.00;97253.59;5036373;28;20201;-67
2023/09/04 06:15:11;;;;;;;6.63;2.75;;;;;;;19.04;100.00;97250.09;5036221;28;20589;-67
2023/09/04 06:17:38;;;;;;;4.13;2.55;;;;;;;19.14;100.00;97247.03;5035170;28;20245;-68
2023/09/04 06:20:06;;;;;;;5.80;3.08;;;;;;;19.28;100.00;97246.00;5035962;28;20205;-67
2023/09/04 06:22:32;;;;;;;5.30;2.60;;;;;;;19.29;100.00;97250.34;5034749;28;20203;-68
2023/09/04 06:24:59;;;;;;;5.60;3.17;;;;;;;18.97;100.00;97251.94;5035445;28;20660;-67
2023/09/04 06:27:27;;;;;;;5.50;2.97;;;;;;;19.33;100.00;97246.22;5035209;28;20248;-67
2023/09/04 06:29:53;;;;;;;5.30;2.92;;;;;;;19.14;100.00;97244.38;5035532;28;20209;-68
2023/09/04 06:32:20;;;;;;;4.18;2.47;;;;;;;19.31;100.00;97243.75;5035855;28;20206;-68
2023/09/04 06:34:46;;;;;;;5.65;2.97;;;;;;;19.25;100.00;97252.59;5036560;28;20225;-68
2023/09/04 06:37:13;;;;;;;4.78;2.70;;;;;;;19.60;100.00;97252.16;5035676;28;20225;-67
2023/09/04 06:39:39;;;;;;;6.13;3.25;;;;;;;19.58;100.00;97245.38;5036161;28;20205;-68
2023/09/04 06:42:06;;;;;;;5.03;2.70;;;;;;;19.62;100.00;97247.41;5035751;28;20930;-68
2023/09/04 06:44:34;;;;;;;5.75;3.40;;;;;;;19.76;100.00;97248.22;5035738;28;20200;-68
2023/09/04 06:47:00;;;;;;;4.93;3.05;;;;;;;19.81;100.00;97259.13;5034060;28;20920;-68
2023/09/04 06:49:27;;;;;;;4.30;2.22;;;;;;;19.89;100.00;97265.03;5035086;28;20212;-68
2023/09/04 06:51:53;;;;;;;4.10;2.45;;;;;;;20.21;100.00;97264.16;5035393;28;20796;-68
2023/09/04 06:54:20;;;;;;;5.18;2.55;;;;;;;19.91;100.00;97259.53;5035782;28;20861;-68
2023/09/04 06:56:46;;;;;;;4.88;2.83;;;;;;;20.18;100.00;97253.88;5035750;28;20233;-68
2023/09/04 06:59:13;;;;;;;3.90;2.53;;;;;;;20.15;100.00;97253.47;5034304;28;20820;-68
2023/09/04 07:01:40;;;;;;;4.88;2.75;;;;;;;19.72;100.00;97263.84;5035875;28;20377;-68
2023/09/04 07:04:07;;;;;;;4.75;2.53;;;;;;;19.23;100.00;97280.56;5035195;28;20206;-67
2023/09/04 07:06:33;;;;;;;3.67;2.42;;;;;;;19.38;100.00;97275.84;5035129;28;20197;-67
2023/09/04 07:09:00;;;;;;;3.92;2.55;;;;;;;19.36;100.00;97269.84;5034692;28;20197;-67
2023/09/04 07:11:26;;;;;;;5.38;3.03;;;;;;;19.20;100.00;97271.09;5035756;28;20197;-67
2023/09/04 07:13:53;;;;;;;5.07;2.67;;;;;;;19.36;100.00;97275.22;5035365;28;20724;-67
2023/09/04 07:16:20;;;;;;;5.25;3.10;;;;;;;19.38;100.00;97271.31;5035149;28;20308;-67
2023/09/04 07:18:47;;;;;;;5.00;2.97;;;;;;;19.26;100.00;97272.97;5035544;28;20212;-67
2023/09/04 07:21:14;;;;;;;6.63;3.33;;;;;;;19.37;100.00;97271.50;5035175;28;20204;-68
2023/09/04 07:23:40;;;;;;;7.25;3.17;;;;;;;19.63;100.00;97259.75;5035500;28;20207;-67
2023/09/04 07:26:07;;;;;;;4.15;2.65;;;;;;;19.57;100.00;97265.13;5035306;28;20228;-67
2023/09/04 07:28:33;;;;;;;4.80;2.95;;;;;;;19.73;100.00;97260.16;5034323;28;20591;-68
2023/09/04 07:31:14;;;;;;;4.32;2.97;;;;;;;20.34;100.00;97264.09;5035235;28;20202;-68
2023/09/04 07:33:41;;;;;;;5.53;2.78;;;;;;;20.05;100.00;97248.59;5035843;28;20246;-67
2023/09/04 07:36:09;;;;;;;5.05;2.95;;;;;;;20.31;100.00;97251.16;5034641;28;20663;-67
2023/09/04 07:38:36;;;;;;;5.05;3.22;;;;;;;20.15;100.00;97254.31;5034806;28;20319;-68
2023/09/04 07:41:03;;;;;;;3.92;2.70;;;;;;;20.29;100.00;97261.25;5034222;28;20686;-68
2023/09/04 07:43:31;;;;;;;4.30;2.40;;;;;;;20.52;100.00;97256.19;5035461;28;20201;-68
2023/09/04 07:45:58;;;;;;;5.70;2.75;;;;;;;20.44;100.00;97259.13;5035288;28;20220;-68
2023/09/04 07:48:25;;;;;;;3.13;1.90;;;;;;;20.48;100.00;97255.81;5034529;28;20229;-67
2023/09/04 07:50:52;;;;;;;4.35;2.28;;;;;;;20.48;100.00;97260.31;5035485;28;20578;-67
2023/09/04 07:53:20;;;;;;;5.90;2.42;;;;;;;20.71;100.00;97249.91;5037969;28;20290;-68
2023/09/04 07:55:47;;;;;;;3.88;2.53;;;;;;;20.50;100.00;97260.94;5038835;28;20720;-67
2023/09/04 07:58:14;;;;;;;3.63;2.45;;;;;;;20.62;100.00;97269.94;5038531;28;20228;-68
2023/09/04 08:00:44;;;;;;;3.85;2.17;;;;;;;20.86;100.00;97265.53;5039244;28;20211;-67
2023/09/04 08:03:10;;;;;;;2.67;2.10;;;;;;;20.71;100.00;97260.63;5039903;28;20200;-68
2023/09/04 08:05:37;;;;;;;3.63;2.40;;;;;;;20.75;100.00;97264.53;5039359;28;20193;-67
2023/09/04 08:08:08;;;;;;;5.38;2.25;;;;;;;21.10;100.00;97261.22;5037810;28;20369;-67
2023/09/04 08:10:39;;;;;;;6.07;3.20;;;;;;;21.16;100.00;97271.09;5038575;28;20502;-68
2023/09/04 08:13:06;;;;;;;4.45;2.28;;;;;;;21.09;100.00;97271.13;5039633;28;20683;-68
2023/09/04 08:15:33;;;;;;;3.85;2.10;;;;;;;21.41;100.00;97286.16;5038991;28;20398;-67
2023/09/04 08:17:59;;;;;;;4.55;2.45;;;;;;;21.51;100.00;97284.66;5038237;28;20225;-67
2023/09/04 08:20:25;;;;;;;3.45;2.25;;;;;;;21.58;100.00;97280.03;5038612;28;20586;-67
2023/09/04 08:22:52;;;;;;;3.47;2.40;;;;;;;21.63;100.00;97277.50;5039036;28;20197;-69
2023/09/04 08:25:18;;;;;;;3.22;2.17;;;;;;;21.45;100.00;97277.44;5038621;28;20556;-68
2023/09/04 08:27:46;;;;;;;5.10;2.75;;;;;;;21.95;100.00;97278.25;5038627;28;20221;-68
2023/09/04 08:30:13;;;;;;;3.85;2.45;;;;;;;21.80;100.00;97275.91;5038663;28;20685;-68
2023/09/04 08:32:39;;;;;;;3.83;2.58;;;;;;;21.88;100.00;97272.94;5038591;28;20236;-69
2023/09/04 08:35:07;;;;;;;3.03;1.92;;;;;;;22.11;100.00;97278.50;5038158;28;20236;-68
2023/09/04 08:37:34;;;;;;;3.60;2.22;;;;;;;22.27;100.00;97272.53;5038427;28;20220;-68
2023/09/04 08:40:01;;;;;;;3.03;1.98;;;;;;;22.19;100.00;97270.13;5037890;28;20206;-68
2023/09/04 08:42:29;;;;;;;3.95;2.50;;;;;;;22.49;100.00;97271.84;5038207;28;20550;-69
2023/09/04 08:44:57;;;;;;;3.85;2.30;;;;;;;22.52;100.00;97271.41;5039038;28;20197;-68
2023/09/04 08:47:24;;;;;;;4.53;2.40;;;;;;;22.77;100.00;97266.72;5037078;28;20244;-69
2023/09/04 08:49:52;;;;;;;8.95;2.63;;;;;;;23.06;100.00;97265.91;5038421;28;20212;-68
2023/09/04 08:52:18;;;;;;;3.22;2.33;;;;;;;22.71;100.00;97260.38;5038121;28;20236;-69
2023/09/04 08:54:46;;;;;;;2.13;1.75;;;;;;;22.64;100.00;97258.81;5038251;28;20225;-68
2023/09/04 08:57:13;;;;;;;2.97;1.90;;;;;;;22.99;100.00;97259.81;5037560;28;20782;-68
2023/09/04 08:59:40;;;;;;;2.30;1.67;;;;;;;22.95;100.00;97255.91;5038920;28;20201;-68
2023/09/04 09:02:14;;;;;;;3.55;2.30;;;;;;;23.04;100.00;97247.31;5037184;28;20205;-68
2023/09/04 09:04:41;;;;;;;9.35;2.35;;;;;;;22.93;100.00;97245.38;5038364;28;20192;-68
2023/09/04 09:07:11;;;;;;;7.15;2.03;;;;;;;23.40;100.00;97249.84;5037353;28;20225;-68
2023/09/04 09:09:39;;;;;;;3.70;1.80;;;;;;;23.63;100.00;97239.09;5037371;28;20731;-68
2023/09/04 09:12:06;;;;;;;3.38;2.00;;;;;;;23.90;100.00;97241.09;5037458;28;20213;-68
2023/09/04 09:14:33;;;;;;;2.65;1.80;;;;;;;23.80;100.00;97246.25;5038919;28;20233;-68
2023/09/04 09:17:03;;;;;;;3.35;2.25;;;;;;;24.12;100.00;97234.03;5037130;28;20221;-68
2023/09/04 09:19:33;;;;;;;2.75;1.67;;;;;;;24.84;100.00;97229.63;5037229;28;20197;-68
2023/09/04 09:22:09;;;;;;;2.20;1.52;;;;;;;24.61;99.49;97235.09;5037424;28;20579;-68
2023/09/04 09:24:50;;;;;;;3.92;2.05;;;;;;;24.97;97.32;97232.00;5037810;28;20726;-68
2023/09/04 09:27:18;;;;;;;2.90;2.00;;;;;;;24.93;100.00;97232.75;5036356;28;20220;-68
2023/09/04 09:29:46;;;;;;;4.13;1.80;;;;;;;25.07;98.18;97236.81;5037724;28;20206;-68
2023/09/04 09:32:12;;;;;;;3.60;1.55;;;;;;;24.63;100.00;97222.22;5037393;28;20201;-68
2023/09/04 09:34:40;;;;;;;3.08;2.00;;;;;;;25.08;100.00;97230.38;5037800;28;20240;-68
2023/09/04 09:37:08;;;;;;;3.88;2.00;;;;;;;24.76;97.70;97229.22;5037130;28;20229;-69
2023/09/04 09:39:35;;;;;;;4.05;1.83;;;;;;;24.85;96.66;97222.38;5036922;28;20251;-69
2023/09/04 09:42:02;;;;;;;3.08;1.77;;;;;;;24.94;100.00;97229.00;5037008;28;20201;-68
2023/09/04 09:44:31;;;;;;;3.13;1.67;;;;;;;25.12;98.46;97223.44;5038072;28;20202;-68
2023/09/04 09:46:58;;;;;;;3.10;1.88;;;;;;;25.08;100.00;97228.47;5037493;28;20268;-68
2023/09/04 09:49:24;;;;;;;3.95;2.08;;;;;;;25.10;100.00;97220.97;5035707;28;20679;-68
2023/09/04 09:51:54;;;;;;;2.45;1.80;;;;;;;25.09;100.00;97213.94;5037538;28;20204;-68
2023/09/04 09:54:37;;;;;;;2.30;1.67;;;;;;;25.11;98.94;97221.78;5036872;28;20205;-68
2023/09/04 09:57:07;;;;;;;2.63;1.73;;;;;;;25.25;100.00;97221.22;5035149;28;20256;-68
2023/09/04 09:59:34;;;;;;;2.47;1.70;;;;;;;24.97;99.48;97207.75;5036763;28;20205;-68
2023/09/04 10:02:03;;;;;;;2.50;1.73;;;;;;;25.53;92.99;97218.44;5036967;28;20204;-68
2023/09/04 10:04:31;;;;;;;2.22;1.45;;;;;;;25.52;90.85;97204.13;5037206;28;20276;-68
2023/09/04 10:06:59;;;;;;;2.47;1.67;;;;;;;25.70;89.22;97208.44;5036131;28;20235;-68
2023/09/04 10:09:28;;;;;;;2.53;1.50;;;;;;;25.71;88.48;97215.50;5036154;28;20671;-69
2023/09/04 10:12:03;;;;;;;2.15;1.33;;;;;;;26.18;86.81;97207.50;5036639;28;20201;-69
2023/09/04 10:14:35;;;;;;;1.88;1.55;;;;;;;26.05;96.04;97207.88;5036058;28;20684;-68
2023/09/04 10:17:03;;;;;;;2.08;1.60;;;;;;;25.98;89.28;97204.56;5036050;28;20225;-68
2023/09/04 10:19:32;;;;;;;2.78;1.77;;;;;;;25.68;87.67;97199.78;5036960;28;20201;-68
2023/09/04 10:22:15;;;;;;;2.55;1.70;;;;;;;25.84;86.16;97192.47;5036499;28;20208;-68
2023/09/04 10:24:49;;;;;;;2.53;1.77;;;;;;;25.85;87.03;97191.41;5035933;28;20568;-68
2023/09/04 10:27:20;;;;;;;2.72;1.83;;;;;;;26.07;89.32;97189.56;5036412;28;20232;-68
2023/09/04 10:29:51;;;;;;;3.05;1.52;;;;;;;25.98;82.37;97188.34;5036457;28;20212;-68
2023/09/04 10:32:18;;;;;;;1.90;1.42;;;;;;;26.09;87.49;97184.69;5036213;28;20215;-68
2023/09/04 10:34:46;;;;;;;1.67;1.25;;;;;;;26.04;84.68;97178.44;5036179;28;20614;-68
2023/09/04 10:37:13;;;;;;;2.67;1.60;;;;;;;26.40;87.65;97177.81;5035258;28;20929;-68
2023/09/04 10:39:41;;;;;;;3.47;1.58;;;;;;;25.99;83.51;97167.53;5035587;28;20793;-68
2023/09/04 10:42:09;;;;;;;2.13;1.45;;;;;;;26.22;79.71;97164.59;5036071;28;20221;-68
2023/09/04 10:44:45;;;;;;;2.67;1.70;;;;;;;26.79;75.26;97172.84;5035468;28;20205;-68
2023/09/04 10:47:12;;;;;;;1.73;1.20;;;;;;;26.58;73.05;97167.50;5034765;28;20221;-68
2023/09/04 10:49:38;;;;;;;2.25;1.35;;;;;;;26.64;72.79;97161.88;5035779;28;20201;-68
2023/09/04 10:52:06;;;;;;;2.58;1.63;;;;;;;27.09;72.81;97160.44;5036227;28;20685;-68
2023/09/04 10:54:34;;;;;;;2.53;1.60;;;;;;;27.10;69.69;97150.47;5035440;28;20209;-68
2023/09/04 10:57:05;;;;;;;1.90;1.38;;;;;;;26.64;68.69;97153.78;5035630;28;20229;-68
2023/09/04 11:00:01;;;;;;;1.80;1.38;;;;;;;27.32;69.81;97157.38;5035566;28;20206;-68
2023/09/04 11:02:30;;;;;;;2.28;1.50;;;;;;;27.22;72.75;97156.50;5035621;28;20245;-68
2023/09/04 11:04:57;;;;;;;2.70;1.38;;;;;;;27.01;68.36;97162.81;5035363;28;20489;-68
2023/09/04 11:07:30;;;;;;;1.15;1.00;;;;;;;27.30;67.07;97169.53;5035643;28;20343;-68
2023/09/04 11:10:05;;;;;;;2.35;1.25;;;;;;;27.46;66.45;97155.88;5035559;28;20197;-68
2023/09/04 11:12:35;;;;;;;2.42;1.45;;;;;;;27.52;67.20;97152.13;5035980;28;20578;-68
2023/09/04 11:15:02;;;;;;;1.83;1.27;;;;;;;27.32;69.05;97151.97;5035416;28;20233;-68
2023/09/04 11:17:31;;;;;;;2.38;1.50;;;;;;;27.41;66.65;97150.41;5034516;28;20223;-68
2023/09/04 11:19:59;;;;;;;2.90;1.48;;;;;;;27.74;66.65;97144.72;5035644;28;20216;-68
2023/09/04 11:22:25;;;;;;;3.10;1.75;;;;;;;27.52;67.08;97151.28;5035669;28;20210;-68
2023/09/04 11:24:54;;;;;;;2.95;1.48;;;;;;;27.55;67.01;97140.75;5034867;28;20357;-68
2023/09/04 11:27:22;;;;;;;2.78;1.50;;;;;;;27.77;68.69;97138.75;5034346;28;20544;-68
2023/09/04 11:29:49;;;;;;;2.90;1.50;;;;;;;27.66;71.32;97147.91;5035804;28;20207;-67